createdAt,value
2023-01-28T00:00:53.892Z,6.57
2023-01-28T00:03:22.336Z,6.95
2023-01-28T00:05:49.555Z,7.25
2023-01-28T00:08:16.575Z,6.97
2023-01-28T00:10:43.609Z,7.15
2023-01-28T00:13:13.478Z,7.95
2023-01-28T00:15:40.780Z,7.40
2023-01-28T00:18:07.686Z,7.50
2023-01-28T00:20:36.440Z,8.73
2023-01-28T00:23:03.608Z,7.68
2023-01-28T00:25:31.227Z,7.45
2023-01-28T00:27:58.247Z,8.63
2023-01-28T00:30:25.241Z,8.23
2023-01-28T00:32:54.269Z,8.13
2023-01-28T00:35:21.271Z,7.63
2023-01-28T00:37:49.610Z,7.40
2023-01-28T00:40:16.837Z,8.27
2023-01-28T00:42:43.759Z,8.63
2023-01-28T00:45:11.124Z,7.90
2023-01-28T00:47:38.196Z,9.52
2023-01-28T00:50:05.880Z,8.77
2023-01-28T00:52:32.865Z,8.75
2023-01-28T00:55:01.239Z,9.02
2023-01-28T00:57:28.193Z,8.70
2023-01-28T00:59:55.365Z,8.15
2023-01-28T01:02:22.399Z,7.97
2023-01-28T01:05:01.351Z,7.40
2023-01-28T01:07:34.845Z,8.00
2023-01-28T01:10:03.359Z,8.73
2023-01-28T01:12:30.669Z,8.32
2023-01-28T01:14:57.673Z,8.50
2023-01-28T01:17:24.827Z,8.48
2023-01-28T01:19:52.083Z,9.32
2023-01-28T01:22:19.024Z,9.00
2023-01-28T01:24:47.915Z,8.68
2023-01-28T01:27:16.570Z,9.02
2023-01-28T01:29:43.516Z,8.85
2023-01-28T01:32:10.453Z,10.73
2023-01-28T01:34:37.450Z,9.10
2023-01-28T01:37:06.359Z,9.27
2023-01-28T01:39:33.296Z,9.40
2023-01-28T01:42:01.480Z,9.38
2023-01-28T01:44:55.852Z,9.50
2023-01-28T01:47:25.439Z,9.50
2023-01-28T01:49:53.043Z,9.18
2023-01-28T01:52:26.396Z,9.15
2023-01-28T01:57:30.058Z,8.70
2023-01-28T02:00:06.170Z,9.43
2023-01-28T02:02:45.403Z,9.23
2023-01-28T02:05:14.778Z,9.00
2023-01-28T02:07:44.144Z,8.98
2023-01-28T02:10:12.455Z,9.10
2023-01-28T02:12:41.947Z,8.65
2023-01-28T02:15:13.251Z,8.43
2023-01-28T02:17:42.373Z,8.82
2023-01-28T02:20:11.510Z,8.98
2023-01-28T02:23:13.979Z,8.95
2023-01-28T02:25:58.862Z,9.60
2023-01-28T02:28:33.605Z,10.07
2023-01-28T02:31:08.153Z,9.60
2023-01-28T02:33:41.286Z,9.38
2023-01-28T02:36:17.563Z,9.50
2023-01-28T02:38:48.918Z,8.55
2023-01-28T02:41:21.807Z,9.20
2023-01-28T02:43:50.895Z,9.02
2023-01-28T02:46:40.904Z,9.05
2023-01-28T02:49:11.541Z,8.43
2023-01-28T02:51:52.996Z,9.85
2023-01-28T02:54:30.623Z,8.27
2023-01-28T02:57:04.459Z,8.15
2023-01-28T02:59:43.162Z,7.75
2023-01-28T03:02:18.088Z,7.80
2023-01-28T03:04:49.889Z,7.80
2023-01-28T03:07:20.532Z,7.82
2023-01-28T03:09:51.252Z,8.05
2023-01-28T03:12:40.601Z,6.97
2023-01-28T03:15:31.543Z,7.57
2023-01-28T03:18:21.382Z,7.15
2023-01-28T03:21:12.694Z,7.85
2023-01-28T03:24:03.788Z,7.20
2023-01-28T03:26:56.822Z,6.80
2023-01-28T03:29:43.853Z,8.23
2023-01-28T03:32:33.774Z,8.20
2023-01-28T03:35:19.571Z,8.30
2023-01-28T03:37:46.749Z,8.45
2023-01-28T03:40:18.986Z,9.35
2023-01-28T03:42:46.014Z,8.82
2023-01-28T03:45:33.155Z,7.82
2023-01-28T03:48:03.207Z,7.72
2023-01-28T03:50:30.671Z,8.20
2023-01-28T03:53:13.552Z,8.05
2023-01-28T03:55:51.699Z,7.75
2023-01-28T03:58:19.647Z,7.93
2023-01-28T04:00:46.968Z,8.15
2023-01-28T04:03:17.404Z,7.35
2023-01-28T04:06:08.208Z,7.28
2023-01-28T04:08:59.395Z,7.38
2023-01-28T04:11:26.982Z,7.25
2023-01-28T04:13:55.428Z,7.18
2023-01-28T04:16:23.833Z,6.78
2023-01-28T04:18:53.417Z,6.78
2023-01-28T04:21:21.086Z,8.00
2023-01-28T04:23:48.443Z,7.18
2023-01-28T04:26:15.450Z,6.57
2023-01-28T04:28:42.791Z,7.70
2023-01-28T04:31:09.994Z,7.82
2023-01-28T04:33:56.327Z,7.60
2023-01-28T04:36:28.138Z,7.53
2023-01-28T04:39:22.235Z,7.60
2023-01-28T04:42:07.538Z,7.55
2023-01-28T04:44:50.483Z,7.28
2023-01-28T04:47:37.622Z,7.97
2023-01-28T04:50:37.860Z,7.95
2023-01-28T04:53:34.701Z,7.13
2023-01-28T04:56:07.939Z,7.35
2023-01-28T04:58:36.317Z,7.88
2023-01-28T05:01:06.841Z,8.75
2023-01-28T05:03:36.327Z,7.75
2023-01-28T05:06:05.927Z,8.38
2023-01-28T05:08:41.967Z,7.22
2023-01-28T05:11:09.261Z,7.60
2023-01-28T05:13:36.310Z,7.68
2023-01-28T05:16:04.214Z,6.72
2023-01-28T05:18:31.198Z,8.10
2023-01-28T05:21:07.971Z,8.32
2023-01-28T05:23:37.006Z,7.97
2023-01-28T05:26:04.295Z,7.40
2023-01-28T05:28:31.437Z,8.50
2023-01-28T05:31:03.635Z,8.13
2023-01-28T05:33:31.043Z,7.63
2023-01-28T05:35:58.424Z,8.52
2023-01-28T05:38:26.794Z,8.73
2023-01-28T05:40:53.874Z,7.90
2023-01-28T05:43:21.107Z,8.07
2023-01-28T05:46:06.335Z,9.02
2023-01-28T05:48:52.326Z,8.48
2023-01-28T05:51:39.389Z,8.75
2023-01-28T05:54:09.280Z,7.85
2023-01-28T05:56:36.776Z,7.78
2023-01-28T05:59:07.341Z,7.90
2023-01-28T06:01:35.592Z,6.93
2023-01-28T06:04:02.575Z,7.50
2023-01-28T06:06:30.714Z,7.10
2023-01-28T06:08:57.678Z,7.15
2023-01-28T06:11:31.658Z,8.02
2023-01-28T06:14:02.770Z,7.68
2023-01-28T06:17:03.236Z,7.57
2023-01-28T06:20:01.607Z,7.60
2023-01-28T06:22:30.535Z,7.32
2023-01-28T06:24:57.773Z,11.38
2023-01-28T06:27:28.819Z,9.07
2023-01-28T06:29:55.782Z,7.93
2023-01-28T06:32:22.866Z,56.05
2023-01-28T06:34:49.904Z,52.70
2023-01-28T06:37:18.741Z,72.00
2023-01-28T06:39:45.687Z,29.63
2023-01-28T06:42:12.646Z,42.45
2023-01-28T06:44:40.986Z,27.75
2023-01-28T06:47:09.439Z,9.70
2023-01-28T06:49:36.358Z,16.83
2023-01-28T06:52:04.624Z,15.40
2023-01-28T06:54:31.555Z,19.92
2023-01-28T06:56:59.529Z,8.32
2023-01-28T06:59:27.044Z,13.88
2023-01-28T07:01:55.464Z,19.92
2023-01-28T07:04:22.396Z,10.48
2023-01-28T07:06:49.289Z,12.13
2023-01-28T07:09:16.227Z,12.57
2023-01-28T07:11:43.196Z,18.20
2023-01-28T07:14:10.147Z,18.80
2023-01-28T07:16:37.078Z,13.25
2023-01-28T07:19:05.520Z,8.57
2023-01-28T07:21:35.380Z,8.75
2023-01-28T07:24:02.598Z,8.30
2023-01-28T07:26:29.528Z,8.43
2023-01-28T07:28:56.563Z,8.30
2023-01-28T07:31:24.355Z,9.13
2023-01-28T07:33:51.310Z,8.10
2023-01-28T07:36:20.490Z,8.07
2023-01-28T07:38:47.492Z,8.80
2023-01-28T07:41:14.429Z,8.57
2023-01-28T07:43:41.392Z,8.43
2023-01-28T07:46:08.350Z,8.30
2023-01-28T07:48:36.066Z,8.30
2023-01-28T07:51:03.171Z,8.65
2023-01-28T07:53:31.531Z,15.63
2023-01-28T07:56:02.082Z,9.32
2023-01-28T07:58:29.220Z,8.07
2023-01-28T08:01:00.496Z,10.50
2023-01-28T08:03:29.769Z,9.15
2023-01-28T08:05:57.981Z,14.38
2023-01-28T08:08:27.278Z,15.07
2023-01-28T08:10:55.671Z,18.13
2023-01-28T08:13:22.736Z,9.68
2023-01-28T08:15:49.751Z,9.45
2023-01-28T08:18:19.751Z,9.60
2023-01-28T08:20:47.901Z,13.70
2023-01-28T08:23:16.797Z,17.10
2023-01-28T08:25:44.124Z,10.73
2023-01-28T08:28:13.665Z,8.80
2023-01-28T08:30:41.206Z,9.63
2023-01-28T08:33:10.471Z,8.35
2023-01-28T08:35:37.660Z,7.75
2023-01-28T08:38:06.453Z,9.85
2023-01-28T08:40:34.249Z,9.02
2023-01-28T08:43:01.708Z,7.82
2023-01-28T08:45:30.356Z,9.13
2023-01-28T08:47:58.684Z,9.68
2023-01-28T08:50:27.701Z,11.40
2023-01-28T08:52:59.372Z,7.85
2023-01-28T08:55:30.395Z,21.00
2023-01-28T08:57:58.677Z,13.27
2023-01-28T09:00:25.797Z,9.15
2023-01-28T09:02:54.253Z,9.10
2023-01-28T09:05:22.319Z,12.43
2023-01-28T09:07:49.379Z,9.48
2023-01-28T09:10:17.250Z,10.80
2023-01-28T09:12:44.623Z,15.43
2023-01-28T09:15:12.349Z,12.18
2023-01-28T09:17:39.809Z,10.98
2023-01-28T09:20:09.831Z,10.95
2023-01-28T09:22:36.840Z,10.90
2023-01-28T09:25:04.164Z,10.38
2023-01-28T09:27:31.109Z,9.05
2023-01-28T09:29:58.307Z,9.77
2023-01-28T09:32:25.345Z,9.25
2023-01-28T09:34:52.285Z,10.30
2023-01-28T09:37:21.625Z,9.23
2023-01-28T09:39:48.535Z,8.68
2023-01-28T09:42:30.750Z,8.77
2023-01-28T09:45:04.134Z,9.40
2023-01-28T09:47:35.926Z,9.82
2023-01-28T09:50:07.379Z,10.73
2023-01-28T09:52:38.982Z,10.70
2023-01-28T09:55:12.485Z,14.43
2023-01-28T09:57:43.946Z,13.52
2023-01-28T10:00:15.888Z,9.15
2023-01-28T10:03:13.608Z,11.32
2023-01-28T10:05:51.067Z,9.25
2023-01-28T10:08:34.571Z,11.13
2023-01-28T10:11:16.613Z,10.55
2023-01-28T10:13:51.707Z,9.52
2023-01-28T10:16:27.494Z,24.63
2023-01-28T10:19:02.939Z,12.00
2023-01-28T10:21:37.644Z,9.70
2023-01-28T10:24:11.311Z,11.05
2023-01-28T10:26:41.922Z,7.93
2023-01-28T10:29:15.224Z,7.68
2023-01-28T10:31:50.937Z,8.32
2023-01-28T10:34:20.072Z,8.60
2023-01-28T10:36:50.231Z,8.75
2023-01-28T10:39:23.101Z,8.57
2023-01-28T10:41:57.873Z,8.43
2023-01-28T10:44:36.274Z,8.38
2023-01-28T10:47:14.869Z,8.55
2023-01-28T10:49:46.742Z,8.80
2023-01-28T10:52:14.524Z,9.20
2023-01-28T10:54:42.966Z,11.20
2023-01-28T10:57:13.395Z,13.70
2023-01-28T10:59:41.876Z,14.70
2023-01-28T11:02:24.522Z,15.07
2023-01-28T11:05:01.904Z,13.30
2023-01-28T11:07:29.192Z,12.20
2023-01-28T11:09:57.500Z,12.00
2023-01-28T11:12:27.002Z,13.30
2023-01-28T11:14:56.377Z,12.55
2023-01-28T11:17:25.829Z,10.75
2023-01-28T11:19:53.921Z,13.18
2023-01-28T11:22:27.142Z,12.50
2023-01-28T11:24:54.784Z,9.93
2023-01-28T11:27:28.619Z,10.35
2023-01-28T11:29:58.058Z,11.00
2023-01-28T11:32:26.816Z,10.10
2023-01-28T11:34:57.451Z,10.43
2023-01-28T11:37:26.260Z,10.70
2023-01-28T11:40:05.009Z,10.18
2023-01-28T11:42:33.359Z,10.40
2023-01-28T11:45:00.604Z,8.07
2023-01-28T11:48:05.123Z,8.07
2023-01-28T11:50:39.901Z,8.45
2023-01-28T11:53:28.250Z,7.43
2023-01-28T11:56:14.156Z,6.22
2023-01-28T11:58:58.551Z,8.30
2023-01-28T12:01:36.080Z,7.32
2023-01-28T12:04:33.412Z,6.78
2023-01-28T12:07:21.079Z,6.60
2023-01-28T12:09:55.831Z,6.38
2023-01-28T12:12:41.940Z,6.15
2023-01-28T12:15:51.312Z,6.07
2023-01-28T12:18:38.675Z,6.80
2023-01-28T12:21:08.507Z,7.85
2023-01-28T12:23:59.476Z,6.97
2023-01-28T12:26:35.682Z,10.25
2023-01-28T12:29:18.460Z,11.10
2023-01-28T12:32:01.341Z,4.82
2023-01-28T12:34:59.126Z,6.57
2023-01-28T12:37:35.723Z,5.47
2023-01-28T12:40:29.248Z,5.82
2023-01-28T12:42:59.267Z,5.20
2023-01-28T12:45:32.663Z,4.40
2023-01-28T12:48:04.556Z,5.85
2023-01-28T12:50:38.092Z,10.48
2023-01-28T12:53:17.734Z,6.40
2023-01-28T12:55:48.864Z,5.78
2023-01-28T12:58:21.250Z,5.55
2023-01-28T13:00:51.514Z,5.50
2023-01-28T13:03:25.645Z,6.60
2023-01-28T13:05:59.842Z,5.13
2023-01-28T13:08:28.417Z,6.45
2023-01-28T13:10:57.397Z,5.10
2023-01-28T13:13:31.087Z,5.88
2023-01-28T13:15:58.073Z,5.90
2023-01-28T13:18:46.087Z,7.32
2023-01-28T13:21:30.604Z,7.18
2023-01-28T13:24:19.385Z,7.22
2023-01-28T13:26:48.693Z,31.85
2023-01-28T13:29:30.473Z,13.48
2023-01-28T13:31:59.253Z,7.43
2023-01-28T13:34:36.207Z,7.13
2023-01-28T13:37:21.759Z,7.88
2023-01-28T13:39:51.231Z,8.52
2023-01-28T13:42:24.423Z,8.63
2023-01-28T13:44:52.136Z,8.65
2023-01-28T13:47:27.401Z,8.30
2023-01-28T13:49:58.488Z,9.60
2023-01-28T13:52:30.388Z,8.35
2023-01-28T13:55:04.423Z,8.60
2023-01-28T13:58:13.214Z,8.32
2023-01-28T14:00:53.071Z,8.68
2023-01-28T14:03:49.846Z,8.30
2023-01-28T14:07:07.374Z,8.13
2023-01-28T14:09:56.877Z,8.15
2023-01-28T14:13:01.085Z,9.55
2023-01-28T14:15:52.556Z,9.45
2023-01-28T14:18:26.891Z,10.60
2023-01-28T14:20:56.354Z,9.33
2023-01-28T14:23:26.694Z,8.85
2023-01-28T14:26:09.571Z,7.80
2023-01-28T14:28:46.330Z,8.70
2023-01-28T14:31:18.543Z,8.48
2023-01-28T14:33:46.944Z,9.73
2023-01-28T14:36:15.126Z,9.90
2023-01-28T14:38:44.358Z,11.20
2023-01-28T14:41:22.640Z,9.18
2023-01-28T14:43:49.799Z,10.63
2023-01-28T14:46:26.013Z,8.77
2023-01-28T14:49:06.516Z,9.18
2023-01-28T14:51:45.807Z,10.07
2023-01-28T14:54:35.096Z,9.18
2023-01-28T14:57:25.806Z,8.85
2023-01-28T14:59:54.722Z,8.85
2023-01-28T15:02:24.086Z,7.80
2023-01-28T15:04:51.916Z,8.95
2023-01-28T15:07:20.893Z,8.55
2023-01-28T15:09:48.669Z,8.85
2023-01-28T15:12:18.051Z,8.60
2023-01-28T15:14:47.408Z,8.57
2023-01-28T15:17:25.392Z,8.57
2023-01-28T15:19:55.541Z,8.00
2023-01-28T15:22:26.172Z,8.07
2023-01-28T15:24:53.609Z,8.38
2023-01-28T15:27:29.170Z,8.73
2023-01-28T15:29:58.289Z,8.35
2023-01-28T15:32:27.786Z,7.82
2023-01-28T15:34:54.823Z,7.60
2023-01-28T15:37:22.554Z,7.97
2023-01-28T15:40:00.561Z,7.50
2023-01-28T15:42:29.565Z,7.63
2023-01-28T15:44:59.879Z,7.80
2023-01-28T15:47:32.596Z,7.38
2023-01-28T15:50:03.554Z,8.93
2023-01-28T15:52:34.420Z,11.45
2023-01-28T15:55:03.064Z,11.60
2023-01-28T15:57:34.748Z,10.55
2023-01-28T16:00:13.360Z,10.93
2023-01-28T16:02:44.236Z,10.32
2023-01-28T16:05:26.513Z,9.57
2023-01-28T16:07:54.576Z,8.73
2023-01-28T16:10:25.036Z,10.25
2023-01-28T16:12:56.373Z,12.93
2023-01-28T16:15:23.346Z,13.15
2023-01-28T16:17:51.834Z,12.57
2023-01-28T16:20:22.173Z,12.75
2023-01-28T16:22:49.626Z,12.52
2023-01-28T16:25:30.753Z,11.35
2023-01-28T16:28:00.520Z,10.27
2023-01-28T16:30:28.570Z,9.93
2023-01-28T16:32:56.707Z,8.07
2023-01-28T16:35:29.815Z,8.30
2023-01-28T16:38:00.307Z,8.80
2023-01-28T16:40:27.551Z,8.95
2023-01-28T16:42:56.558Z,8.02
2023-01-28T16:45:26.209Z,9.27
2023-01-28T16:47:54.348Z,8.88
2023-01-28T16:50:23.218Z,9.50
2023-01-28T16:52:53.890Z,8.68
2023-01-28T16:55:22.620Z,8.68
2023-01-28T16:57:54.602Z,8.80
2023-01-28T17:00:23.574Z,8.70
2023-01-28T17:02:53.265Z,9.50
2023-01-28T17:05:21.452Z,9.57
2023-01-28T17:07:49.499Z,9.05
2023-01-28T17:10:18.820Z,9.60
2023-01-28T17:12:47.826Z,9.07
2023-01-28T17:15:15.352Z,9.32
2023-01-28T17:17:42.791Z,10.15
2023-01-28T17:20:12.402Z,10.25
2023-01-28T17:22:40.221Z,10.77
2023-01-28T17:25:08.200Z,10.75
2023-01-28T17:27:35.220Z,11.82
2023-01-28T17:30:02.363Z,11.98
2023-01-28T17:32:29.912Z,12.02
2023-01-28T17:34:57.056Z,12.10
2023-01-28T17:37:26.309Z,12.02
2023-01-28T17:39:53.473Z,11.65
2023-01-28T17:42:20.944Z,12.90
2023-01-28T17:44:51.122Z,11.50
2023-01-28T17:47:19.075Z,11.57
2023-01-28T17:49:46.449Z,11.57
2023-01-28T17:52:14.082Z,11.73
2023-01-28T17:54:42.541Z,12.07
2023-01-28T17:57:10.996Z,12.85
2023-01-28T17:59:39.170Z,11.75
2023-01-28T18:02:07.694Z,11.85
2023-01-28T18:04:38.460Z,11.07
2023-01-28T18:07:11.687Z,11.45
2023-01-28T18:09:40.095Z,10.75
2023-01-28T18:12:11.656Z,11.00
2023-01-28T18:14:39.734Z,10.77
2023-01-28T18:17:08.207Z,10.68
2023-01-28T18:19:35.731Z,11.43
2023-01-28T18:22:03.292Z,10.63
2023-01-28T18:24:31.589Z,10.88
2023-01-28T18:27:00.744Z,10.18
2023-01-28T18:29:32.351Z,10.02
2023-01-28T18:32:01.017Z,9.88
2023-01-28T18:34:31.585Z,10.93
2023-01-28T18:37:00.226Z,10.15
2023-01-28T18:39:31.058Z,10.40
2023-01-28T18:41:59.526Z,10.35
2023-01-28T18:44:31.821Z,10.93
2023-01-28T18:47:00.212Z,13.23
2023-01-28T18:49:28.857Z,12.82
2023-01-28T18:51:57.394Z,11.38
2023-01-28T18:54:25.012Z,12.48
2023-01-28T18:56:53.321Z,11.15
2023-01-28T18:59:22.971Z,11.13
2023-01-28T19:01:53.272Z,10.80
2023-01-28T19:04:22.325Z,10.85
2023-01-28T19:06:49.683Z,10.57
2023-01-28T19:09:18.750Z,11.00
2023-01-28T19:11:49.671Z,11.02
2023-01-28T19:14:18.964Z,10.88
2023-01-28T19:16:47.876Z,11.77
2023-01-28T19:19:21.597Z,12.68
2023-01-28T19:21:50.124Z,11.63
2023-01-28T19:24:18.834Z,11.88
2023-01-28T19:26:47.448Z,11.20
2023-01-28T19:29:17.192Z,11.65
2023-01-28T19:31:45.582Z,11.90
2023-01-28T19:34:14.187Z,10.82
2023-01-28T19:36:44.554Z,10.68
2023-01-28T19:39:14.260Z,11.18
2023-01-28T19:41:42.582Z,11.95
2023-01-28T19:44:11.023Z,11.45
2023-01-28T19:46:39.465Z,12.00
2023-01-28T19:49:10.113Z,11.75
2023-01-28T19:51:39.335Z,13.75
2023-01-28T19:54:09.581Z,15.20
2023-01-28T19:56:39.208Z,13.40
2023-01-28T19:59:07.984Z,13.00
2023-01-28T20:01:37.044Z,11.43
2023-01-28T20:04:06.068Z,11.48
2023-01-28T20:06:36.010Z,10.30
2023-01-28T20:09:07.518Z,10.65
2023-01-28T20:11:37.708Z,9.95
2023-01-28T20:14:06.495Z,9.07
2023-01-28T20:16:36.929Z,9.63
2023-01-28T20:19:07.554Z,9.80
2023-01-28T20:21:37.602Z,8.88
2023-01-28T20:24:08.331Z,9.70
2023-01-28T20:26:39.730Z,8.63
2023-01-28T20:29:10.209Z,7.97
2023-01-28T20:31:40.191Z,7.25
2023-01-28T20:34:08.157Z,8.18
2023-01-28T20:36:36.828Z,7.05
2023-01-28T20:39:05.714Z,6.70
2023-01-28T20:41:34.429Z,7.82
2023-01-28T20:44:03.450Z,7.32
2023-01-28T20:46:33.765Z,8.10
2023-01-28T20:49:07.522Z,7.68
2023-01-28T20:51:36.292Z,8.93
2023-01-28T20:54:04.973Z,8.07
2023-01-28T20:56:32.191Z,8.90
2023-01-28T20:59:02.697Z,9.48
2023-01-28T21:01:38.125Z,8.20
2023-01-28T21:04:09.649Z,7.90
2023-01-28T21:06:40.655Z,9.30
2023-01-28T21:09:09.477Z,8.32
2023-01-28T21:11:37.270Z,8.93
2023-01-28T21:14:04.485Z,8.73
2023-01-28T21:16:33.117Z,9.05
2023-01-28T21:19:00.237Z,9.50
2023-01-28T21:21:28.960Z,8.88
2023-01-28T21:23:59.136Z,9.02
2023-01-28T21:26:26.820Z,8.90
2023-01-28T21:28:53.984Z,9.15
2023-01-28T21:31:23.069Z,11.13
2023-01-28T21:33:52.835Z,15.00
2023-01-28T21:36:21.485Z,15.38
2023-01-28T21:38:52.570Z,15.68
2023-01-28T21:41:20.331Z,15.45
2023-01-28T21:43:49.431Z,15.80
2023-01-28T21:46:16.494Z,14.77
2023-01-28T21:48:43.665Z,15.05
2023-01-28T21:51:30.927Z,15.27
2023-01-28T21:53:58.845Z,14.45
2023-01-28T21:56:26.135Z,13.70
2023-01-28T21:59:11.581Z,13.90
2023-01-28T22:01:38.656Z,14.25
2023-01-28T22:04:05.866Z,13.27
2023-01-28T22:06:34.320Z,13.40
2023-01-28T22:09:01.677Z,13.82
2023-01-28T22:11:28.699Z,14.20
2023-01-28T22:13:55.691Z,15.88
2023-01-28T22:16:22.804Z,14.60
2023-01-28T22:18:50.281Z,14.50
2023-01-28T22:21:18.329Z,14.07
2023-01-28T22:23:46.794Z,13.88
2023-01-28T22:26:16.340Z,12.52
2023-01-28T22:28:43.412Z,12.80
2023-01-28T22:31:12.684Z,13.60
2023-01-28T22:33:40.735Z,12.52
2023-01-28T22:36:09.965Z,12.65
2023-01-28T22:38:39.255Z,13.07
2023-01-28T22:41:08.979Z,13.05
2023-01-28T22:43:36.412Z,13.18
2023-01-28T22:46:04.714Z,11.95
2023-01-28T22:48:31.820Z,12.43
2023-01-28T22:51:02.968Z,12.82
2023-01-28T22:53:30.357Z,11.32
2023-01-28T22:55:57.466Z,12.55
2023-01-28T22:58:26.159Z,13.25
2023-01-28T23:00:53.211Z,13.25
2023-01-28T23:03:20.374Z,12.23
2023-01-28T23:05:48.286Z,12.52
2023-01-28T23:08:15.278Z,12.20
2023-01-28T23:10:47.085Z,11.88
2023-01-28T23:13:18.008Z,12.65
2023-01-28T23:16:06.266Z,11.80
2023-01-28T23:18:36.692Z,13.10
2023-01-28T23:21:22.723Z,15.25
2023-01-28T23:24:08.201Z,7.88
2023-01-28T23:26:35.387Z,6.25
2023-01-28T23:29:02.322Z,6.18
2023-01-28T23:31:30.848Z,5.30
2023-01-28T23:33:57.930Z,5.60
2023-01-28T23:36:25.119Z,5.75
2023-01-28T23:38:52.030Z,5.50
2023-01-28T23:41:19.045Z,6.03
2023-01-28T23:43:46.503Z,5.00
2023-01-28T23:46:13.516Z,5.40
2023-01-28T23:48:42.389Z,4.65
2023-01-28T23:51:09.890Z,5.63
2023-01-28T23:53:36.901Z,4.95
2023-01-28T23:56:06.762Z,5.07
2023-01-28T23:58:43.318Z,4.50
